Time;durP1;ratioP1;P1;durP2;ratioP2;P2;SDS_P1;SDS_P2;PMS_P1;PMS_P2;Temp;Humidity;BMP_temperature;BMP_pressure;BME280_temperature;BME280_humidity;BME280_pressure;Samples;Min_cycle;Max_cycle;Signal;HPM_P1;HPM_P2
2023/07/31 04:17:34;;;;;;;3.40;3.10;;;18.20;99.90;;;;;;10388380;22;20276;-87
2023/07/31 04:22:36;;;;;;;2.53;2.33;;;18.30;99.90;;;;;;10405805;28;20282;-86
2023/07/31 04:27:38;;;;;;;2.90;2.70;;;18.40;99.90;;;;;;10406008;28;20234;-86
2023/07/31 04:32:41;;;;;;;2.90;2.70;;;18.50;99.90;;;;;;10402607;28;20222;-85
2023/07/31 04:37:44;;;;;;;4.20;2.90;;;18.60;99.90;;;;;;10408320;28;20315;-86
2023/07/31 04:42:46;;;;;;;2.80;2.70;;;18.60;99.90;;;;;;10397204;28;20218;-85
2023/07/31 04:47:49;;;;;;;3.10;2.87;;;18.70;99.90;;;;;;10396480;28;20674;-86
2023/07/31 04:52:52;;;;;;;3.57;2.80;;;18.70;99.90;;;;;;10398511;28;20199;-86
2023/07/31 04:57:56;;;;;;;3.10;2.80;;;18.80;99.90;;;;;;10415436;28;20714;-86
2023/07/31 05:03:07;;;;;;;2.97;2.77;;;18.90;99.90;;;;;;10439720;28;20654;-86
2023/07/31 05:08:17;;;;;;;4.80;3.17;;;19.00;99.90;;;;;;10426182;28;20225;-85
2023/07/31 05:13:20;;;;;;;3.50;3.17;;;19.00;99.90;;;;;;10421403;28;20713;-86
2023/07/31 05:18:25;;;;;;;6.90;3.33;;;19.00;99.90;;;;;;10411722;28;20729;-86
2023/07/31 05:23:28;;;;;;;4.40;2.73;;;19.00;99.90;;;;;;10424256;28;20218;-87
2023/07/31 05:28:33;;;;;;;3.60;2.93;;;19.00;99.90;;;;;;10414556;28;20230;-86
2023/07/31 05:33:46;;;;;;;2.97;2.73;;;19.00;99.90;;;;;;10420691;28;20207;-87
2023/07/31 05:39:06;;;;;;;2.60;2.40;;;19.00;99.90;;;;;;10422204;28;20733;-86
2023/07/31 05:44:10;;;;;;;3.50;3.13;;;18.90;99.90;;;;;;10418334;28;20248;-87
2023/07/31 05:49:14;;;;;;;2.90;2.70;;;19.00;99.90;;;;;;10416535;28;20256;-86
2023/07/31 05:54:16;;;;;;;3.47;2.60;;;19.10;99.90;;;;;;10408388;28;20229;-87
2023/07/31 05:59:19;;;;;;;8.43;2.77;;;19.30;99.90;;;;;;10400471;28;20218;-87
2023/07/31 06:04:25;;;;;;;2.50;2.30;;;19.40;99.90;;;;;;10397636;28;20231;-86
2023/07/31 06:09:27;;;;;;;4.33;3.00;;;19.60;99.90;;;;;;10400468;28;20206;-85
2023/07/31 06:14:29;;;;;;;3.00;2.77;;;19.70;99.90;;;;;;10397744;28;20239;-86
2023/07/31 06:19:32;;;;;;;2.90;2.50;;;19.80;99.90;;;;;;10403003;28;20250;-87
2023/07/31 06:24:34;;;;;;;2.80;2.60;;;20.00;99.90;;;;;;10405497;28;20297;-87
2023/07/31 06:29:37;;;;;;;3.20;2.90;;;20.20;99.90;;;;;;10422117;28;20211;-86
2023/07/31 06:34:40;;;;;;;2.70;2.50;;;20.30;99.90;;;;;;10375551;28;20215;-85
2023/07/31 06:39:42;;;;;;;3.27;2.03;;;20.50;99.90;;;;;;10393254;28;20215;-85
2023/07/31 06:44:44;;;;;;;2.53;2.33;;;20.80;99.80;;;;;;10396481;28;20253;-85
2023/07/31 06:49:47;;;;;;;4.63;2.50;;;21.00;98.80;;;;;;10407318;28;20266;-86
2023/07/31 06:55:03;;;;;;;2.33;2.13;;;21.00;98.70;;;;;;10409349;28;20262;-86
2023/07/31 07:00:06;;;;;;;2.70;2.37;;;21.10;99.30;;;;;;10415473;28;20206;-87
2023/07/31 07:05:10;;;;;;;3.20;2.57;;;21.20;98.70;;;;;;10420006;28;20252;-85
2023/07/31 07:10:13;;;;;;;4.97;2.90;;;21.50;99.10;;;;;;10407155;28;20214;-85
2023/07/31 07:15:15;;;;;;;3.80;2.27;;;21.60;98.30;;;;;;10404446;28;20238;-86
2023/07/31 07:20:19;;;;;;;2.70;2.50;;;21.70;97.90;;;;;;10405003;28;20239;-85
2023/07/31 07:25:22;;;;;;;4.00;2.60;;;21.90;97.60;;;;;;10403124;28;20716;-86
2023/07/31 07:30:25;;;;;;;7.33;3.67;;;22.00;97.20;;;;;;10401512;28;20242;-87
2023/07/31 07:35:28;;;;;;;3.27;2.97;;;22.30;97.00;;;;;;10405397;28;20293;-86
2023/07/31 07:40:30;;;;;;;3.60;2.47;;;22.60;97.10;;;;;;10403512;28;20238;-84
2023/07/31 07:45:32;;;;;;;2.93;2.50;;;22.70;95.60;;;;;;10405862;28;20663;-84
2023/07/31 07:50:36;;;;;;;4.00;3.10;;;22.80;95.60;;;;;;10415986;28;20217;-84
2023/07/31 07:55:39;;;;;;;2.50;2.37;;;22.90;95.40;;;;;;10420480;28;21523;-86
2023/07/31 08:00:41;;;;;;;3.27;2.80;;;23.10;95.50;;;;;;10405573;28;20483;-83
2023/07/31 08:05:44;;;;;;;3.90;2.60;;;23.30;95.40;;;;;;10406386;28;20233;-83
2023/07/31 08:10:46;;;;;;;3.93;3.40;;;23.50;95.50;;;;;;10408301;28;20396;-85
2023/07/31 08:15:49;;;;;;;2.53;2.33;;;23.80;94.20;;;;;;10409434;28;20721;-84
2023/07/31 08:20:52;;;;;;;3.17;2.87;;;24.10;94.00;;;;;;10410138;28;20266;-84
2023/07/31 08:25:54;;;;;;;3.43;2.83;;;24.40;93.90;;;;;;10410542;28;20230;-86
2023/07/31 08:30:56;;;;;;;4.03;2.70;;;24.80;92.00;;;;;;10414256;28;20261;-84
2023/07/31 08:36:01;;;;;;;3.07;2.70;;;25.10;91.50;;;;;;10410555;28;20233;-83
2023/07/31 08:41:04;;;;;;;4.40;2.93;;;25.50;91.50;;;;;;10410625;28;20214;-86
2023/07/31 08:46:06;;;;;;;3.33;3.00;;;25.90;90.40;;;;;;10408745;28;20257;-87
2023/07/31 08:51:10;;;;;;;4.27;2.70;;;26.10;89.00;;;;;;10408232;28;20221;-86
2023/07/31 08:56:14;;;;;;;2.90;2.70;;;26.20;87.20;;;;;;10405577;28;20241;-85
2023/07/31 09:01:17;;;;;;;3.30;2.60;;;26.10;89.20;;;;;;10406373;28;20198;-86
2023/07/31 09:06:24;;;;;;;3.37;2.60;;;26.10;87.60;;;;;;10422977;28;20581;-86
2023/07/31 09:11:27;;;;;;;2.73;2.53;;;26.10;87.40;;;;;;10403747;28;20203;-87
2023/07/31 09:16:31;;;;;;;3.27;2.97;;;26.00;86.30;;;;;;10414769;28;20710;-85
2023/07/31 09:21:48;;;;;;;2.80;2.50;;;26.00;87.50;;;;;;10407795;28;20230;-84
2023/07/31 09:26:55;;;;;;;4.00;2.70;;;25.90;89.10;;;;;;10401587;28;20596;-86
2023/07/31 09:31:57;;;;;;;3.93;2.80;;;26.00;87.50;;;;;;10402299;28;20195;-85
2023/07/31 09:37:03;;;;;;;3.43;2.60;;;26.00;88.40;;;;;;10396955;28;20237;-86
2023/07/31 09:42:06;;;;;;;3.63;2.90;;;25.80;89.20;;;;;;10398884;28;20235;-86
2023/07/31 09:47:21;;;;;;;7.37;3.47;;;25.60;87.40;;;;;;10405683;28;20744;-86
2023/07/31 09:52:27;;;;;;;3.33;2.93;;;25.30;88.40;;;;;;10403680;28;20210;-86
2023/07/31 09:57:29;;;;;;;3.73;3.20;;;25.30;89.40;;;;;;10402399;28;20832;-85
2023/07/31 10:02:32;;;;;;;3.50;3.20;;;25.70;89.60;;;;;;10398987;28;21272;-85
2023/07/31 10:07:39;;;;;;;3.80;2.90;;;26.00;88.50;;;;;;10405211;28;20591;-86
2023/07/31 10:12:41;;;;;;;5.30;3.70;;;26.30;88.20;;;;;;10403626;28;20213;-86
2023/07/31 10:17:44;;;;;;;3.90;2.93;;;26.50;82.90;;;;;;10443314;22;20720;-83
2023/07/31 10:22:49;;;;;;;4.50;3.20;;;27.10;83.70;;;;;;10430208;28;20257;-82
2023/07/31 10:27:53;;;;;;;3.93;2.83;;;27.30;81.20;;;;;;10410624;28;20226;-82
2023/07/31 10:32:56;;;;;;;4.90;2.77;;;27.10;83.50;;;;;;10390242;28;20709;-81
2023/07/31 10:38:11;;;;;;;4.00;3.60;;;26.90;81.90;;;;;;10403115;28;20234;-81
2023/07/31 10:43:26;;;;;;;3.53;3.17;;;26.50;81.80;;;;;;10399100;28;20230;-83
2023/07/31 10:48:34;;;;;;;4.70;2.53;;;26.20;82.80;;;;;;10416313;28;20279;-82
2023/07/31 10:53:38;;;;;;;3.60;3.00;;;26.00;81.50;;;;;;10401706;28;20207;-81
2023/07/31 10:58:40;;;;;;;5.10;3.70;;;25.90;84.40;;;;;;10400996;28;20229;-81
2023/07/31 11:03:43;;;;;;;6.03;2.80;;;25.90;83.10;;;;;;10396093;28;20903;-81
2023/07/31 11:08:48;;;;;;;3.10;2.80;;;25.70;85.40;;;;;;10400358;28;20226;-82
2023/07/31 11:13:52;;;;;;;3.23;2.90;;;25.50;83.30;;;;;;10399146;28;20225;-81
2023/07/31 11:18:55;;;;;;;6.10;3.40;;;25.20;84.50;;;;;;10395833;28;20226;-82
2023/07/31 11:23:59;;;;;;;6.00;3.63;;;25.00;85.80;;;;;;10397970;28;20219;-81
2023/07/31 11:29:02;;;;;;;4.87;3.77;;;24.90;88.00;;;;;;10401900;28;20325;-81
2023/07/31 11:34:07;;;;;;;3.57;3.20;;;24.80;86.70;;;;;;10399389;28;20210;-82
2023/07/31 11:39:11;;;;;;;4.27;3.20;;;24.70;85.90;;;;;;10402192;28;20248;-81
2023/07/31 11:44:13;;;;;;;4.53;3.40;;;24.40;86.80;;;;;;10393383;28;20262;-81
2023/07/31 11:49:16;;;;;;;5.83;3.43;;;24.10;87.70;;;;;;10396920;28;20758;-82
2023/07/31 11:54:20;;;;;;;4.60;3.87;;;24.20;88.50;;;;;;10396253;28;20223;-81
2023/07/31 11:59:22;;;;;;;3.80;3.30;;;24.30;90.00;;;;;;10393193;28;20693;-81
2023/07/31 12:04:25;;;;;;;3.93;3.57;;;24.60;88.70;;;;;;10396890;28;20233;-81
2023/07/31 12:09:29;;;;;;;6.40;3.60;;;24.90;88.50;;;;;;10398672;28;20217;-81
2023/07/31 12:14:31;;;;;;;3.73;3.43;;;25.10;89.70;;;;;;10390296;28;20234;-82
2023/07/31 12:19:33;;;;;;;5.90;2.83;;;25.30;88.00;;;;;;10392313;28;20585;-81
2023/07/31 12:24:37;;;;;;;3.30;3.00;;;25.40;86.00;;;;;;10395903;28;20372;-81
2023/07/31 12:29:40;;;;;;;3.80;3.10;;;25.30;86.00;;;;;;10395486;28;20597;-81
2023/07/31 12:34:44;;;;;;;4.20;3.00;;;25.20;87.20;;;;;;10396877;28;20871;-82
2023/07/31 12:39:47;;;;;;;4.77;2.63;;;25.10;88.40;;;;;;10395351;28;20293;-81
2023/07/31 12:44:49;;;;;;;3.70;3.40;;;25.10;86.80;;;;;;10400665;28;20955;-81
2023/07/31 12:49:51;;;;;;;3.83;3.50;;;24.90;87.90;;;;;;10391033;28;20222;-81
2023/07/31 12:54:55;;;;;;;6.50;3.03;;;24.70;87.20;;;;;;10383909;28;20582;-81
2023/07/31 12:59:57;;;;;;;4.20;3.40;;;24.60;87.30;;;;;;10393406;28;20219;-81
2023/07/31 13:04:59;;;;;;;4.17;3.13;;;24.50;88.90;;;;;;10395478;28;20226;-82
2023/07/31 13:10:03;;;;;;;5.27;3.30;;;24.50;90.60;;;;;;10395935;28;20221;-82
2023/07/31 13:15:06;;;;;;;3.47;3.17;;;24.50;87.30;;;;;;10396966;28;21037;-82
2023/07/31 13:20:09;;;;;;;3.33;3.13;;;24.60;89.10;;;;;;10402163;28;20298;-81
2023/07/31 13:25:12;;;;;;;4.47;3.70;;;24.60;90.10;;;;;;10395572;28;20280;-82
2023/07/31 13:30:15;;;;;;;4.17;3.77;;;24.60;90.50;;;;;;10396228;28;20210;-82
2023/07/31 13:35:17;;;;;;;4.20;3.27;;;24.70;89.70;;;;;;10384854;28;20223;-82
2023/07/31 13:40:20;;;;;;;6.27;3.37;;;24.80;88.00;;;;;;10392920;28;20760;-80
2023/07/31 13:45:23;;;;;;;3.93;3.63;;;24.90;89.80;;;;;;10393454;28;20329;-82
2023/07/31 13:50:25;;;;;;;3.53;3.23;;;25.00;90.10;;;;;;10394767;28;20202;-82
2023/07/31 13:55:28;;;;;;;3.80;3.50;;;25.00;90.60;;;;;;10393472;28;20249;-81
2023/07/31 14:00:31;;;;;;;3.03;2.83;;;25.10;88.90;;;;;;10402584;28;20230;-81
2023/07/31 14:05:33;;;;;;;3.70;3.27;;;25.00;88.40;;;;;;10403820;28;20315;-81
2023/07/31 14:10:37;;;;;;;4.20;3.37;;;25.10;90.00;;;;;;10404132;28;20681;-82
2023/07/31 14:15:40;;;;;;;3.47;3.17;;;25.10;86.80;;;;;;10403467;28;20638;-81
2023/07/31 14:20:42;;;;;;;4.87;3.47;;;25.00;85.70;;;;;;10403553;28;20210;-81
2023/07/31 14:25:46;;;;;;;6.50;3.40;;;25.00;89.00;;;;;;10401510;28;20234;-82
2023/07/31 14:30:48;;;;;;;3.40;3.10;;;25.00;89.30;;;;;;10402262;28;20210;-81
2023/07/31 14:35:50;;;;;;;3.10;2.83;;;25.00;88.30;;;;;;10402416;28;20730;-81
2023/07/31 14:40:53;;;;;;;5.37;4.73;;;25.00;90.70;;;;;;10401788;28;20265;-80
2023/07/31 14:45:59;;;;;;;3.93;3.50;;;25.00;90.40;;;;;;10402141;28;20234;-81
2023/07/31 14:51:01;;;;;;;4.17;3.47;;;25.00;90.50;;;;;;10398606;28;20217;-81
2023/07/31 14:56:05;;;;;;;2.97;2.77;;;25.00;90.40;;;;;;10389496;28;20233;-81
2023/07/31 15:01:07;;;;;;;4.80;3.87;;;25.00;90.80;;;;;;10404614;28;20214;-80
2023/07/31 15:06:09;;;;;;;3.37;3.10;;;25.00;91.00;;;;;;10404006;28;20231;-79
2023/07/31 15:11:15;;;;;;;4.70;3.50;;;24.90;90.70;;;;;;10408677;28;20222;-80
2023/07/31 15:16:17;;;;;;;3.00;2.70;;;24.90;88.00;;;;;;10406598;28;20217;-79
2023/07/31 15:21:19;;;;;;;3.03;2.80;;;24.90;89.70;;;;;;10428823;28;20205;-80
2023/07/31 15:26:23;;;;;;;4.20;3.30;;;24.80;88.40;;;;;;10425758;28;20230;-80
2023/07/31 15:31:25;;;;;;;4.20;2.80;;;24.80;87.90;;;;;;10418588;28;20207;-80
2023/07/31 15:36:27;;;;;;;3.80;3.50;;;24.80;87.00;;;;;;10416710;28;20207;-81
2023/07/31 15:41:31;;;;;;;4.10;3.80;;;24.70;87.60;;;;;;10418675;28;20597;-81
2023/07/31 15:46:33;;;;;;;3.70;3.10;;;24.60;87.80;;;;;;10417464;28;20701;-80
2023/07/31 15:51:35;;;;;;;3.47;3.17;;;24.50;88.90;;;;;;10413377;28;20231;-79
2023/07/31 15:56:39;;;;;;;6.43;3.27;;;24.40;87.50;;;;;;10413982;28;20631;-81
2023/07/31 16:01:41;;;;;;;5.20;3.63;;;24.30;89.40;;;;;;10412713;28;20223;-81
2023/07/31 16:06:43;;;;;;;3.23;2.93;;;24.20;88.40;;;;;;10409014;28;20273;-79
2023/07/31 16:11:47;;;;;;;3.43;3.13;;;24.10;90.00;;;;;;10407702;28;20282;-80
2023/07/31 16:16:49;;;;;;;3.90;3.07;;;24.10;89.90;;;;;;10435338;22;20280;-86
2023/07/31 16:21:52;;;;;;;3.53;3.23;;;24.00;90.40;;;;;;10415687;28;20256;-86
2023/07/31 16:26:55;;;;;;;6.23;3.30;;;24.00;88.80;;;;;;10411778;28;20222;-86
2023/07/31 16:31:58;;;;;;;2.27;2.17;;;24.00;88.20;;;;;;10412269;28;20293;-86
2023/07/31 16:37:00;;;;;;;4.17;3.23;;;23.90;87.90;;;;;;10411182;28;20214;-86
2023/07/31 16:42:04;;;;;;;5.40;3.47;;;23.90;90.00;;;;;;10434284;28;20202;-87
2023/07/31 16:47:07;;;;;;;3.80;3.30;;;23.80;89.20;;;;;;10401255;28;20724;-85
2023/07/31 16:52:09;;;;;;;7.43;3.20;;;23.80;90.90;;;;;;10417324;28;20210;-85
2023/07/31 16:57:12;;;;;;;3.20;2.90;;;23.70;90.50;;;;;;10414178;28;20214;-86
2023/07/31 17:02:15;;;;;;;3.80;3.27;;;23.70;90.30;;;;;;10418081;28;20632;-85
2023/07/31 17:07:17;;;;;;;4.40;4.07;;;23.70;90.70;;;;;;10416908;28;20222;-85
2023/07/31 17:12:21;;;;;;;5.17;3.53;;;23.70;90.20;;;;;;10418606;28;20305;-84
2023/07/31 17:17:24;;;;;;;3.90;3.60;;;23.70;90.00;;;;;;10418713;28;20222;-86
2023/07/31 17:22:26;;;;;;;3.20;2.90;;;23.60;92.50;;;;;;10419131;28;20581;-84
2023/07/31 17:27:30;;;;;;;4.70;3.37;;;23.60;92.60;;;;;;10421818;28;20697;-85
2023/07/31 17:32:32;;;;;;;5.70;3.37;;;23.50;93.90;;;;;;10412442;28;20206;-86
2023/07/31 17:37:34;;;;;;;4.37;4.07;;;23.40;93.30;;;;;;10403065;28;20218;-85
2023/07/31 17:42:38;;;;;;;4.50;3.80;;;23.40;93.10;;;;;;10425915;28;20214;-86
2023/07/31 17:47:40;;;;;;;4.00;3.40;;;23.30;92.50;;;;;;10426722;28;20230;-86
2023/07/31 17:52:42;;;;;;;3.83;3.43;;;23.30;93.30;;;;;;10416515;28;20270;-85
2023/07/31 17:57:45;;;;;;;3.80;3.27;;;23.20;95.20;;;;;;10417790;28;20230;-84
2023/07/31 18:02:47;;;;;;;3.50;3.20;;;23.10;96.80;;;;;;10427803;28;20218;-85
2023/07/31 18:07:49;;;;;;;2.87;2.67;;;23.10;96.20;;;;;;10432591;28;20217;-84
2023/07/31 18:12:54;;;;;;;4.03;2.80;;;23.00;95.00;;;;;;10427170;28;20199;-87
2023/07/31 18:17:59;;;;;;;3.67;3.37;;;22.90;94.70;;;;;;10411450;28;20708;-86
2023/07/31 18:23:01;;;;;;;4.37;3.10;;;22.90;94.60;;;;;;10426406;28;20261;-86
2023/07/31 18:28:04;;;;;;;4.00;3.37;;;22.70;94.50;;;;;;10408991;28;20265;-86
2023/07/31 18:33:07;;;;;;;3.50;3.20;;;22.70;94.70;;;;;;10403845;28;20717;-86
2023/07/31 18:38:09;;;;;;;4.27;3.60;;;22.60;94.10;;;;;;10408762;28;20569;-85
2023/07/31 18:43:14;;;;;;;5.60;3.47;;;22.50;94.60;;;;;;10413177;28;20252;-85
2023/07/31 18:48:16;;;;;;;5.10;3.87;;;22.50;95.90;;;;;;10421358;28;20516;-85
2023/07/31 18:53:18;;;;;;;4.93;4.27;;;22.30;96.90;;;;;;10418098;28;21702;-85
2023/07/31 18:58:22;;;;;;;5.10;4.50;;;22.20;98.60;;;;;;10415632;28;20553;-85
2023/07/31 19:03:24;;;;;;;5.43;4.93;;;21.90;99.90;;;;;;10417045;28;20222;-86
2023/07/31 19:08:26;;;;;;;7.40;6.80;;;21.50;99.90;;;;;;10414164;28;20305;-83
2023/07/31 19:13:30;;;;;;;9.30;8.33;;;21.20;99.90;;;;;;10414659;28;20203;-85
2023/07/31 19:18:32;;;;;;;10.07;9.27;;;20.70;99.90;;;;;;10415606;28;20313;-85
2023/07/31 19:23:34;;;;;;;10.70;9.70;;;20.40;99.90;;;;;;10415614;28;20337;-86
2023/07/31 19:28:38;;;;;;;11.10;10.10;;;20.10;99.90;;;;;;10400290;28;20310;-86
2023/07/31 19:33:40;;;;;;;11.20;10.20;;;19.90;99.90;;;;;;10416769;28;20198;-85
2023/07/31 19:38:42;;;;;;;12.40;11.10;;;19.70;99.90;;;;;;10416030;28;20420;-85
2023/07/31 19:43:46;;;;;;;11.40;10.30;;;19.50;99.90;;;;;;10415430;28;20671;-85
2023/07/31 19:48:48;;;;;;;11.50;10.70;;;19.40;99.90;;;;;;10413438;28;20218;-83
2023/07/31 19:53:50;;;;;;;10.77;9.90;;;19.40;99.90;;;;;;10413889;28;20235;-85
2023/07/31 19:58:53;;;;;;;12.10;10.97;;;19.40;99.90;;;;;;10401735;28;20705;-86
2023/07/31 20:03:56;;;;;;;12.07;10.53;;;19.40;99.90;;;;;;10406340;28;20223;-85
2023/07/31 20:08:58;;;;;;;11.43;10.50;;;19.40;99.90;;;;;;10410568;28;20316;-85
2023/07/31 20:14:05;;;;;;;12.80;11.07;;;19.50;99.90;;;;;;10409753;28;20195;-85
2023/07/31 20:19:07;;;;;;;12.63;11.63;;;19.50;99.90;;;;;;10410356;28;20234;-85
2023/07/31 20:24:11;;;;;;;12.50;11.67;;;19.40;99.90;;;;;;10411338;28;20241;-85
2023/07/31 20:29:14;;;;;;;12.00;11.30;;;19.40;99.90;;;;;;10382486;28;20704;-85
2023/07/31 20:34:16;;;;;;;10.67;9.87;;;19.40;99.90;;;;;;10415322;28;20194;-85
2023/07/31 20:39:18;;;;;;;12.63;11.63;;;19.40;99.90;;;;;;10423403;28;20226;-85
2023/07/31 20:44:22;;;;;;;11.33;10.43;;;19.40;99.90;;;;;;10391526;28;20265;-86
2023/07/31 20:49:24;;;;;;;11.53;10.73;;;19.40;99.90;;;;;;10396668;28;20241;-86
2023/07/31 20:54:26;;;;;;;11.47;10.47;;;19.40;99.90;;;;;;10401454;28;20334;-86
2023/07/31 20:59:30;;;;;;;10.60;9.60;;;19.40;99.90;;;;;;10405312;28;20226;-85
2023/07/31 21:04:32;;;;;;;11.47;10.47;;;19.40;99.90;;;;;;10413532;28;20633;-85
2023/07/31 21:09:34;;;;;;;10.90;10.10;;;19.40;99.90;;;;;;10410741;28;20206;-85
2023/07/31 21:14:38;;;;;;;10.20;9.50;;;19.40;99.90;;;;;;10411549;28;20203;-86
2023/07/31 21:19:43;;;;;;;8.93;8.23;;;19.40;99.90;;;;;;10410301;28;20215;-86
2023/07/31 21:24:45;;;;;;;11.00;9.90;;;19.40;99.90;;;;;;10434277;28;20220;-86
2023/07/31 21:29:49;;;;;;;9.60;8.90;;;19.40;99.90;;;;;;10434427;28;20206;-86
2023/07/31 21:34:51;;;;;;;8.20;7.70;;;19.40;99.90;;;;;;10408020;28;20329;-86
2023/07/31 21:39:53;;;;;;;9.53;8.80;;;19.40;99.90;;;;;;10401696;28;20641;-86
2023/07/31 21:44:57;;;;;;;8.10;7.50;;;19.40;99.90;;;;;;10402319;28;20693;-85
2023/07/31 21:49:59;;;;;;;8.90;7.60;;;19.50;99.90;;;;;;10405039;28;20203;-86
2023/07/31 21:55:01;;;;;;;8.43;7.70;;;19.50;99.90;;;;;;10404236;28;20214;-86
2023/07/31 22:00:06;;;;;;;9.43;7.97;;;19.50;99.90;;;;;;10404303;28;20202;-86
2023/07/31 22:05:09;;;;;;;8.17;7.10;;;19.50;99.90;;;;;;10408691;28;20220;-86
2023/07/31 22:10:11;;;;;;;8.03;7.43;;;19.50;99.90;;;;;;10411640;28;20281;-85
2023/07/31 22:15:14;;;;;;;7.23;6.73;;;19.60;99.90;;;;;;10438140;22;20234;-79
2023/07/31 22:20:16;;;;;;;8.27;7.47;;;19.60;99.90;;;;;;10418242;28;20226;-78
2023/07/31 22:25:19;;;;;;;7.90;7.40;;;19.60;99.90;;;;;;10423499;28;20230;-80
2023/07/31 22:30:22;;;;;;;8.17;7.57;;;19.70;99.90;;;;;;10423499;28;20238;-79
2023/07/31 22:35:24;;;;;;;7.60;6.83;;;19.70;99.90;;;;;;10425145;28;20607;-79
2023/07/31 22:40:27;;;;;;;8.50;7.70;;;19.80;99.90;;;;;;10424237;28;20666;-79
2023/07/31 22:45:30;;;;;;;7.27;6.60;;;19.80;99.90;;;;;;10420314;28;20227;-82
2023/07/31 22:50:32;;;;;;;6.13;5.63;;;19.70;99.90;;;;;;10422250;28;20217;-82
2023/07/31 22:55:34;;;;;;;6.90;6.40;;;19.70;99.90;;;;;;10424579;28;20219;-82
2023/07/31 23:00:38;;;;;;;7.30;6.70;;;19.60;99.90;;;;;;10424330;28;20241;-81
2023/07/31 23:05:40;;;;;;;5.40;4.90;;;19.70;99.90;;;;;;10422978;28;20219;-81
2023/07/31 23:10:42;;;;;;;6.47;5.97;;;19.70;99.90;;;;;;10426081;28;20202;-81
2023/07/31 23:15:46;;;;;;;5.37;4.90;;;19.60;99.90;;;;;;10424923;28;20691;-80
2023/07/31 23:20:51;;;;;;;6.50;5.50;;;19.60;99.90;;;;;;10424889;28;20207;-81
2023/07/31 23:25:53;;;;;;;5.87;5.40;;;19.60;99.90;;;;;;10426346;28;20313;-81
2023/07/31 23:31:02;;;;;;;6.90;5.03;;;19.60;99.90;;;;;;10442371;28;20213;-80
2023/07/31 23:36:09;;;;;;;5.20;4.70;;;19.70;99.90;;;;;;10454417;28;20207;-81
2023/07/31 23:41:11;;;;;;;4.57;4.27;;;19.80;99.90;;;;;;10452621;28;20194;-78
2023/07/31 23:46:15;;;;;;;5.10;4.70;;;19.80;99.90;;;;;;10449395;28;20761;-79
2023/07/31 23:51:17;;;;;;;4.73;4.33;;;19.80;99.90;;;;;;10415960;28;20584;-80
2023/07/31 23:56:19;;;;;;;5.20;4.70;;;19.90;99.90;;;;;;10417377;28;20229;-81
